Trafford, AL (35172)

7:45 AM CDT en Octubre 24, 2014 (GMT -0500)
Doss Ferry / NJMS | Change Station
CLOSE
Current Station
Estación meteorológica personal
Location: Kimberly, AL
Altura: 453 ft
Estaciones meteorológicas cercanas

Alt 453 ft 33.78 °N, 86.80 °W | Updated 38 seconds ago

Muy nublado
Muy nublado
49.3 ° F
Sensación térmica 49 ° F
N
0.0
Viento Variable Viento desde Este
Gusts 0.0 mph

Hoy
Alta -- | Baja -- ° F
--% Posibilidad de precipitaciones
Ayer
Alta -- | Baja -- ° F
Precip. -- pul
6:59 AM 6:02 PM
Luna nueva, 0% visible
Presión 30.10 pul
Visibilidad 10.0 Millas
Nubes Nublado 20000 ft
Vientos helados 49 ° F
Punto de rocío 48 ° F
Humedad 96%
Precipitaciones 0.00 pul
Espesor de la nieve No disponible.
UV 0 de una escala de 12
Polen 2.30 de una escala de 12
Ozono Buena
PM2.5 Moderada
Flu Activity Sporadic
METAR KBHM 241153Z 25006KT 10SM OVC200 12/08 A3011 RMK AO2 SLP192 T01170078 10117 20106 53005

More Conditions Fewer Conditions

Presión 30.10 pul
Visibilidad 10.0 Millas
Nubes Nublado 20000 ft
Vientos helados 49 ° F
Punto de rocío 48 ° F
Humedad 96%
Precipitaciones 0.00 pul
Espesor de la nieve No disponible.
UV 0 de una escala de 12
Polen 2.30 de una escala de 12
Ozono Buena
PM2.5 Moderada
Flu Activity Sporadic
METAR KBHM 241153Z 25006KT 10SM OVC200 12/08 A3011 RMK AO2 SLP192 T01170078 10117 20106 53005

More Conditions Fewer Conditions

10-Day Weather Forecast

Almanac

Astronomía

Oct. 24, 2014 Salida Puesta
Hora real 6:59 AM CDT 6:02 PM CDT
Crepúsculo civil 6:33 AM CDT 6:27 PM CDT
Crepúsculo náutico 6:04 AM CDT 6:57 PM CDT
Crepúsculo astronómico 5:35 AM CDT 7:26 PM CDT
Luna 7:36 AM CDT 6:44 PM CDT
Horas de luz 11h 54m
Horas de luz
11h 03m
Tomorrow will be 1m 55s shorter.
Luna nueva, 0% of the Moon is Illuminated
Hoy
Luna nueva
Oct 30
Cuarto creciente
Nov 6
Luna llena
Nov 14
Cuarto menguante
Nov 22
Nueva

Extremos de hoy

Máximos del estado Bajos del estado

Community

WunderPhotos

Upload Photos

1,764,544 ¡fotos cargadas!

Nearby

Calidad del aire

  Calidad del aire Índice AQ Contaminante
Ayer Buena
PM10
Ayer Buena
OZONE
Real Moderada
PM2.5
Real Buena
OZONE
Viernes Buena
PM2.5

Grosos de nieve

Estación Profundido Altura
No tenemos constancia de nieve nueva.

Actividad de terremotos

Ciudad Distance Mag. Tiempo y dato
No hay informes recientes de la actividad sísmica.
Magnitud mínima muestra es 2,5.

Temperaturas de aguas costeras

Lugar Temperatura
Sin partes meteorológicos de las estaciones

Estaciones meteorológicas cercanas